Tiempo atmosférico en la estación meteorológica de Seira, Huesca (825 m.)



Fecha
DESCASC
Temp. máxima en grados centígrados (hora)
DESCASC
Temp. mínima en grados centígrados (hora)
DESCASC
Temp. media en grados centígrados
DESCASC
Racha de viento máxima en m/sg (hora)
DESCASC
Velocidad máxima media en intervalos de 10 minutos(hora)
DESCASC
Precipitaciones diarias en mm
DESCASC
Precipitaciones de 00:00 a 06:00 en mm
DESCASC
Precipitaciones de 06:00 a 12:00 en mm
DESCASC
Precipitaciones de 12:00 a 18:00 en mm
DESCASC
Precipitaciones de 18:00 a 24:00 en mm
DESCASC
13-01-2021 5.6 (14:20) -5 (06:50) 0.3 2.5 (01:00) 1.11 (02:40) 0 0 0 0 0
12-01-2021 4.3 (14:00) -7.5 (05:00) -1.6 3.33 (22:00) 1.11 (22:00) 0 0 0 0 0
11-01-2021 3.1 (14:40) -5.8 (23:50) -1.4 3.61 (13:00) 1.39 (13:00) 0 0 0 0 0
10-01-2021 3.2 (15:00) 0.1 (00:10) 1.7 1.39 (15:20) 0.83 (15:20) 13.6 7.8 5.6 0.2 0
09-01-2021 0.9 (14:40) -2.3 (-00:0) -0.7 1.39 (17:40) 0.83 (00:40) 26.2 0.6 3 7.8 14.8
08-01-2021 5 (15:40) -9.3 (-00:0) -2.2 3.33 (08:50) 1.11 (15:40) 0 0 0 0 0
07-01-2021 0.6 (15:00) -7.8 (-00:0) -3.6 2.78 (11:50) 1.39 (11:00) 0 0 0 0 0
06-01-2021 4.2 (15:20) -9 (-00:0) -2.4 3.89 (16:30) 1.39 (16:30) 0 0 0 0 0
05-01-2021 4.3 (15:40) -8.1 (-00:0) -1.9 4.72 (15:30) 2.22 (16:20) 0 0 0 0 0
04-01-2021 1.7 (15:40) -6.7 (-00:0) -2.5 2.22 (01:40) 0.83 (15:40) 0 0 0 0 0
03-01-2021 6.4 (14:20) -5.1 (-00:0) 0.7 9.72 (02:40) 4.44 (02:40) 0 0 0 0 0
02-01-2021 5.2 (14:10) -5.5 (-00:0) -0.2 9.44 (17:10) 3.61 (15:30) 0 0 0 0 0
01-01-2021 6.1 (14:50) -3.6 (-00:0) 1.3 4.44 (15:20) 1.94 (15:10) 0 0 0 0 0
31-12-2020 3.6 (15:10) -4.1 (-00:0) -0.3 3.06 (11:10) 0.83 (09:20) 1.2 0 0 0.6 0.6
30-12-2020 6 (14:40) -3.7 (-00:0) 1.1 4.72 (14:40) 2.22 (14:20) 0 0 0 0 0
29-12-2020 5.2 (16:10) -2.7 (-00:0) 1.2 3.89 (16:20) 1.67 (16:20) 0.2 0.2 0 0 0
28-12-2020 3.4 (13:30) -0.7 (-00:0) 1.4 6.67 (15:00) 3.06 (15:20) 9 6.8 0.8 0.4 1
27-12-2020 3.2 (22:50) -4.8 (-00:0) -0.8 5.28 (22:30) 2.22 (22:30) 0 0 0 0 0
26-12-2020 5.5 (14:30) -4 (-00:0) 0.8 10.56 (03:20) 5.28 (02:50) 0 0 0 0 0
25-12-2020 3.3 (14:40) -1.8 (-00:0) 0.8 7.78 (14:20) 3.33 (14:00) 0 0 0 0 0
24-12-2020 8.4 (14:00) -0.8 (-00:0) 3.8 4.17 (14:20) 2.22 (14:20) 0 0 0 0 0
23-12-2020 13.3 (16:00) 3.2 (00:00) 8.3 5 (08:20) 1.39 (07:40) 0 0 0 0 0
22-12-2020 13 (14:40) 2 (00:00) 7.5 3.89 (04:10) 1.11 (04:10) 0 0 0 0 0
21-12-2020 8.8 (15:50) 0.7 (00:00) 4.8 1.67 (06:40) 0.83 (10:50) 0 0 0 0 0
20-12-2020 9.6 (16:10) 3.2 (00:00) 6.4 3.33 (23:20) 1.11 (14:20) 3 3 0 0 0
19-12-2020 10.1 (14:10) 2.2 (00:00) 6.2 3.61 (10:00) 1.11 (12:50) 0.2 0 0 0 0.2
18-12-2020 12.8 (16:00) -0.1 (00:00) 6.4 3.61 (16:40) 1.67 (16:20) 0 0 0 0 0

Gráficas

Temp. máximas Temp. mínimas Temp. medias Precipitaciones Rachas de viento máximas Velocidades máximas media en intervalos de 10 minutos

Datos horarios

Fecha y hora oficial Temperatura (ºC) Velocidad del viento (km/h) Dirección del viento Racha (km/h) Dirección de racha Precipitación (mm) Presión (hPa) Tendencia (hPa) Humedad (%)
2021-01-16 23:00:00 -1 2 Este 5 Norte 0 -- -- 85
2021-01-16 22:00:00 -0.4 3 Sur 9 Noroeste 0 -- -- 82
2021-01-16 21:00:00 0 3 Sudeste 8 Este 0 -- -- 81
2021-01-16 20:00:00 1.2 0 Calma 9 Sudeste 0 -- -- 76
2021-01-16 19:00:00 2.5 4 Sudeste 10 Noroeste 0 -- -- 71
2021-01-16 18:00:00 3.6 4 Sudeste 11 Norte 0 -- -- 66
2021-01-16 17:00:00 6.2 2 Este 17 Sur 0 -- -- 51
2021-01-16 16:00:00 9.1 3 Oeste 23 Sur 0 -- -- 40
2021-01-16 15:00:00 10 7 Sur 18 Sur 0 -- -- 35
2021-01-16 14:00:00 8.9 3 Sur 11 Sudeste 0 -- -- 35
2021-01-16 13:00:00 5 0 Calma 4 Sur 0 -- -- 47
2021-01-16 12:00:00 -0.2 3 Este 6 Sudeste 0 -- -- 60
2021-01-16 11:00:00 -3.2 3 Nordeste 7 Norte 0 -- -- 76
2021-01-16 10:00:00 -3.6 3 Este 7 Sudeste 0 -- -- 76
2021-01-16 09:00:00 -3.7 5 Sudeste 8 Sudoeste 0 -- -- 75
2021-01-16 08:00:00 -3.1 3 Este 7 Sudeste 0 -- -- 70
2021-01-16 07:00:00 -2 0 Calma 6 Norte 0 -- -- 71
2021-01-16 06:00:00 -0.2 3 Sur 8 Sudeste 0 -- -- 57
2021-01-16 05:00:00 3.2 2 Nordeste 12 Sur 0 -- -- 41
2021-01-16 04:00:00 5.9 6 Este 27 Nordeste 0 -- -- 34
2021-01-16 03:00:00 7.4 13 Nordeste 34 Norte 0 -- -- 24
2021-01-16 02:00:00 6.3 8 Nordeste 29 Noroeste 0 -- -- 30
2021-01-16 01:00:00 5.1 8 Nordeste 31 Norte 0 -- -- 33
2021-01-16 00:00:00 4.7 11 Norte 26 Norte 0 -- -- 38
2021-01-15 23:00:00 3.8 4 Nordeste 36 Norte 0 -- -- 50
2021-01-15 22:00:00 6.7 9 Noroeste 24 Oeste 0 -- -- 33
2021-01-15 21:00:00 3.6 6 Este 26 Oeste 0 -- -- 42
2021-01-15 20:00:00 4.5 5 Nordeste 34 Noroeste 0 -- -- 41
2021-01-15 19:00:00 8 15 Noroeste 40 Sudoeste 0 -- -- 28
2021-01-15 18:00:00 8.3 12 Sudoeste 37 Oeste 0 -- -- 26
2021-01-15 17:00:00 9.6 8 Noroeste 41 Sudoeste 0 -- -- 28
2021-01-15 16:00:00 10.3 10 Sudoeste 36 Sudoeste 0 -- -- 26
2021-01-15 15:00:00 10.3 9 Sur 39 Sudoeste 0 -- -- 31
2021-01-15 14:00:00 10.9 8 Sur 38 Sur 0 -- -- 29
2021-01-15 13:00:00 10 19 Sudoeste 41 Sudoeste 0 -- -- 30
2021-01-15 12:00:00 10 9 Norte 33 Noroeste 0 -- -- 30
2021-01-15 11:00:00 8.4 12 Oeste 28 Sudoeste 0 -- -- 29
2021-01-15 10:00:00 8.1 8 Sur 36 Noroeste 0 -- -- 35
2021-01-15 09:00:00 6.5 10 Norte 29 Noroeste 0 -- -- 33
2021-01-15 08:00:00 6.1 9 Este 35 Noroeste 0 -- -- 40
2021-01-15 07:00:00 8.7 8 Oeste 24 Sudoeste 0 -- -- 28
2021-01-15 06:00:00 5.2 11 Nordeste 27 Este 0 -- -- 38
2021-01-15 05:00:00 4.9 7 Este 43 Sudoeste 0 -- -- 51
2021-01-15 04:00:00 7.6 14 Nordeste 39 Norte 0 -- -- 35
2021-01-15 03:00:00 3.7 8 Nordeste 22 Nordeste 0 -- -- 55
2021-01-15 02:00:00 3 8 Nordeste 50 Sudeste 0 -- -- 67
2021-01-15 01:00:00 6.2 10 Nordeste 37 Norte 0 -- -- 52
2021-01-15 00:00:00 5 6 Este 27 Norte 0 -- -- 59
2021-01-14 23:00:00 5.7 6 Este 28 Norte 0 -- -- 61
2021-01-14 22:00:00 5.3 5 Nordeste 15 Nordeste 0 -- -- 66
2021-01-14 21:00:00 9.2 8 Norte 21 Norte 0 -- -- 51
2021-01-14 20:00:00 2.8 5 Este 14 Este 0 -- -- 75
2021-01-14 19:00:00 3.9 3 Este 18 Oeste 0 -- -- 63
2021-01-14 18:00:00 0.5 3 Nordeste 8 Sudeste 0 -- -- 88
2021-01-14 17:00:00 4 2 Sudoeste 6 Sur 0 -- -- 75
2021-01-14 16:00:00 5.2 0 Calma 7 Sudoeste 0 -- -- 67
2021-01-14 15:00:00 5.6 2 Sudoeste 6 Sudeste 0 -- -- 62
2021-01-14 14:00:00 5 0 Calma 4 Norte 0 -- -- 62
2021-01-14 13:00:00 1.8 3 Noroeste 5 Noroeste 0 -- -- 73
2021-01-14 12:00:00 -2.4 3 Este 7 Sur 0 -- -- 82
2021-01-14 11:00:00 -4.7 2 Nordeste 9 Sur 0 -- -- 88
2021-01-14 10:00:00 -4.9 3 Sur 9 Noroeste 0 -- -- 88
2021-01-14 09:00:00 -5 2 Sudeste 5 Norte 0 -- -- 86
2021-01-14 08:00:00 -4.9 2 Sur 5 Sur 0 -- -- 88
2021-01-14 07:00:00 -4.6 0 Calma 6 Este 0 -- -- 88
2021-01-14 06:00:00 -4.2 2 Sur 6 Nordeste 0 -- -- 89
2021-01-14 05:00:00 -4 2 Este 5 Noroeste 0 -- -- 92
2021-01-14 04:00:00 -3.5 0 Calma 6 Este 0 -- -- 91
2021-01-14 03:00:00 -3.1 2 Norte 6 Norte 0 -- -- 91
2021-01-14 02:00:00 -2.9 2 Sur 5 Sur 0 -- -- 91
2021-01-14 01:00:00 -2.2 0 Calma 9 Norte 0 -- -- 92
2021-01-14 00:00:00 -2 2 Sudeste 6 Este 0 -- -- 94
2021-01-13 23:00:00 -2 2 Nordeste 5 Norte 0 -- -- 96
2021-01-13 22:00:00 -1.9 2 Sudeste 5 Sur 0 -- -- 97
2021-01-13 21:00:00 -1.7 0 Calma 5 Norte 0 -- -- 99
2021-01-13 20:00:00 -1.6 0 Calma 5 Sur 0 -- -- 98
2021-01-13 19:00:00 -0.8 0 Calma 4 Este 0 -- -- 96
2021-01-13 18:00:00 0.5 0 Calma 4 Nordeste 0 -- -- 93
2021-01-13 17:00:00 3.4 0 Calma 3 Sur 0 -- -- 83
2021-01-13 16:00:00 4.6 0 Calma 4 Sur 0 -- -- 78
2021-01-13 15:00:00 5.2 0 Calma 4 Sur 0 -- -- 74
2021-01-13 14:00:00 5.3 3 Norte 9 Sur 0 -- -- 72
2021-01-13 13:00:00 3.2 0 Calma 8 Este 0 -- -- 77
2021-01-13 12:00:00 -0.7 2 Sudeste 7 Sudeste 0 -- -- 91
2021-01-13 11:00:00 -3.5 2 Este 6 Norte 0 -- -- 94
2021-01-13 10:00:00 -4.1 2 Nordeste 4 Sudeste 0 -- -- 95
2021-01-13 09:00:00 -4.6 2 Nordeste 5 Norte 0 -- -- 96
2021-01-13 08:00:00 -4.7 0 Calma 5 Norte 0 -- -- 98
2021-01-13 07:00:00 -5 2 Nordeste 6 Noroeste 0 -- -- 97
2021-01-13 06:00:00 -4.8 3 Nordeste 5 Norte 0 -- -- 98
2021-01-13 05:00:00 -4.7 2 Nordeste 5 Sudeste 0 -- -- 98
2021-01-13 04:00:00 -4.3 0 Calma 9 Sudeste 0 -- -- 98
2021-01-13 03:00:00 -4.1 2 Norte 8 Sudeste 0 -- -- 97
2021-01-13 02:00:00 -3.5 3 Sudeste 7 Sudeste 0 -- -- 98
2021-01-13 01:00:00 -3.4 4 Este 9 Sudeste 0 -- -- 97
2021-01-13 00:00:00 -3.1 3 Sudeste 9 Sudeste 0 -- -- 98
2021-01-12 23:00:00 -3.3 3 Sur 9 Sudeste 0 -- -- 97
2021-01-12 22:00:00 -3 4 Sudeste 12 Oeste 0 -- -- 98
2021-01-12 21:00:00 -2.8 3 Sudeste 8 Noroeste 0 -- -- 98
2021-01-12 20:00:00 -2.3 3 Sur 8 Sudeste 0 -- -- 98
2021-01-12 19:00:00 -1.7 3 Sudeste 6 Sudeste 0 -- -- 96
2021-01-12 18:00:00 -0.7 0 Calma 5 Sudeste 0 -- -- 93
2021-01-12 17:00:00 2 0 Calma 4 Sudeste 0 -- -- 83
2021-01-12 16:00:00 3.3 0 Calma 4 Nordeste 0 -- -- 77
2021-01-12 15:00:00 3.6 0 Calma 3 Norte 0 -- -- 74
2021-01-12 14:00:00 4.3 2 Norte 5 Nordeste 0 -- -- 69
2021-01-12 13:00:00 0.2 0 Calma 6 Sudeste 0 -- -- 82
2021-01-12 12:00:00 -3.8 2 Este 5 Norte 0 -- -- 93
2021-01-12 11:00:00 -5.5 2 Nordeste 6 Sudeste 0 -- -- 92
2021-01-12 10:00:00 -6.4 2 Sudeste 6 Noroeste 0 -- -- 90
2021-01-12 09:00:00 -6.7 2 Sur 5 Sudeste 0 -- -- 93
2021-01-12 08:00:00 -6.8 2 Este 7 Sudeste 0 -- -- 93
2021-01-12 07:00:00 -7.2 2 Este 5 Sudeste 0 -- -- 95
2021-01-12 06:00:00 -7.2 2 Este 5 Noroeste 0 -- -- 95
2021-01-12 05:00:00 -7.5 2 Este 7 Noroeste 0 -- -- 95
2021-01-12 04:00:00 -7 0 Calma 6 Sudeste 0 -- -- 95
2021-01-12 03:00:00 -6.7 2 Sur 7 Sudeste 0 -- -- 92
2021-01-12 02:00:00 -6.3 4 Sur 8 Sudeste 0 -- -- 92
2021-01-12 01:00:00 -6 2 Norte 6 Sudoeste 0 -- -- 91
2021-01-12 00:00:00 -5.8 3 Nordeste 8 Norte 0 -- -- 91
2021-01-11 23:00:00 -5.4 0 Calma 7 Nordeste 0 -- -- 94
2021-01-11 22:00:00 -5.1 2 Este 6 Este 0 -- -- 92
2021-01-11 21:00:00 -4.6 2 Sudeste 6 Sudeste 0 -- -- 95
2021-01-11 20:00:00 -4.1 2 Nordeste 6 Sudeste 0 -- -- 97
2021-01-11 19:00:00 -3.4 3 Sur 5 Noroeste 0 -- -- 96
2021-01-11 18:00:00 -2.3 3 Sudeste 5 Sudeste 0 -- -- 95
2021-01-11 17:00:00 0.4 2 Sudoeste 5 Sur 0 -- -- 88
2021-01-11 16:00:00 1.3 0 Calma 4 Este 0 -- -- 84
2021-01-11 15:00:00 2.5 0 Calma 6 Nordeste 0 -- -- 79
2021-01-11 14:00:00 2.8 3 Sudoeste 9 Sudoeste 0 -- -- 77
2021-01-11 13:00:00 0 5 Sudeste 13 Sudeste 0 -- -- 89
2021-01-11 12:00:00 -3.5 0 Calma 5 Sur 0 -- -- 99
2021-01-11 11:00:00 -5.2 0 Calma 4 Norte 0 -- -- 97
2021-01-11 10:00:00 -5 0 Calma 4 Sur 0 -- -- 97
2021-01-11 09:00:00 -4.9 2 Sudeste 5 Sudeste 0 -- -- 97
2021-01-11 08:00:00 -4.7 2 Oeste 5 Sudeste 0 -- -- 97
2021-01-11 07:00:00 -4.8 0 Calma 3 Noroeste 0 -- -- 97
2021-01-11 06:00:00 -4.2 0 Calma 4 Este 0 -- -- 98
2021-01-11 05:00:00 -3.5 0 Calma 5 Sudeste 0 -- -- 97
2021-01-11 04:00:00 -2.5 0 Calma 4 Sudoeste 0 -- -- 97
2021-01-11 03:00:00 -1.8 0 Calma 4 Sudeste 0 -- -- 99
2021-01-11 02:00:00 -1 0 Calma 4 Norte 0 -- -- 100
2021-01-11 01:00:00 -0.4 0 Calma 4 Nordeste 0 -- -- 100
2021-01-11 00:00:00 0.2 0 Calma 3 Sur 0 -- -- 100
2021-01-10 23:00:00 0.4 0 Calma 3 Sudoeste 0 -- -- 100
2021-01-10 22:00:00 0.5 0 Calma 2 Sur 0 -- -- 100
2021-01-10 21:00:00 0.6 0 Calma 3 Sudeste 0 -- -- 100
2021-01-10 20:00:00 0.7 0 Calma 3 Sudoeste 0 -- -- 99
2021-01-10 19:00:00 0.9 2 Sur 2 Sur 0 -- -- 99
2021-01-10 18:00:00 1.4 0 Calma 2 Sudoeste 0 -- -- 97
2021-01-10 17:00:00 2.1 0 Calma 4 Sudoeste 0 -- -- 94
2021-01-10 16:00:00 2.7 0 Calma 5 Sur 0 -- -- 92
2021-01-10 15:00:00 3.2 2 Oeste 4 Oeste 0 -- -- 90
2021-01-10 14:00:00 2.9 0 Calma 3 Oeste 0.2 -- -- 90
2021-01-10 13:00:00 2.7 0 Calma 3 Sur 0 -- -- 91
2021-01-10 12:00:00 1.9 0 Calma 2 Noroeste 0.2 -- -- 95
2021-01-10 11:00:00 1 0 Calma 2 Noroeste 0.6 -- -- 99
2021-01-10 10:00:00 0.5 0 Calma 2 Sur 0.6 -- -- 100
2021-01-10 09:00:00 0.2 0 Calma 0 Calma 1.6 -- -- 100
2021-01-10 08:00:00 0.2 0 Calma -- -- 1.6 -- -- 100
2021-01-10 07:00:00 0.2 0 Calma 0 Calma 1 -- -- 100
2021-01-10 06:00:00 0.1 0 Calma 0 Calma 0.8 -- -- 100
2021-01-10 05:00:00 0.1 0 Calma 0 Calma 1.2 -- -- 100
2021-01-10 04:00:00 0.2 0 Calma 0 Calma 0.6 -- -- 100
2021-01-10 03:00:00 0.2 0 Calma 0 Calma 1.8 -- -- 99
2021-01-10 02:00:00 0.2 0 Calma 0 Calma 2.6 -- -- 99
2021-01-10 01:00:00 0.2 0 Calma 2 Norte 0.8 -- -- 99
2021-01-10 00:00:00 0.2 0 Calma 0 Calma 1.2 -- -- 99
2021-01-09 23:00:00 0.2 0 Calma -- -- 2.4 -- -- 99
2021-01-09 22:00:00 0.2 0 Calma 0 Calma 4.2 -- -- 99
2021-01-09 21:00:00 0.2 0 Calma 2 Norte 3.2 -- -- 99
2021-01-09 20:00:00 0.2 0 Calma 2 Nordeste 2.8 -- -- 99
2021-01-09 19:00:00 0.3 0 Calma 5 Norte 1 -- -- 99
2021-01-09 18:00:00 0.3 0 Calma 5 Oeste 0.2 -- -- 98
2021-01-09 17:00:00 0.6 0 Calma 2 Norte 2 -- -- 97
2021-01-09 16:00:00 0.7 0 Calma 2 Oeste 1.2 -- -- 96
2021-01-09 15:00:00 0.9 0 Calma 3 Sudoeste 1.4 -- -- 95
2021-01-09 14:00:00 0.6 0 Calma 2 Sudoeste 1.6 -- -- 96
2021-01-09 13:00:00 0.3 0 Calma 4 Sur 1.4 -- -- 96
2021-01-09 12:00:00 -0.1 0 Calma 2 Sur 0.6 -- -- 96
2021-01-09 11:00:00 -0.5 0 Calma 3 Sur 0.2 -- -- 95
2021-01-09 10:00:00 -1.2 0 Calma 3 Sudoeste 0.2 -- -- 96
2021-01-09 09:00:00 -1.7 0 Calma 3 Sudoeste 0.4 -- -- 97
2021-01-09 08:00:00 -2 0 Calma 2 Sudeste 0.6 -- -- 96
2021-01-09 07:00:00 -2.1 0 Calma 2 Sudeste 1 -- -- 95
2021-01-09 06:00:00 -2.2 0 Calma 2 Sudeste 0.6 -- -- 93
2021-01-09 05:00:00 -1.9 0 Calma 2 Sur 0 -- -- 86
2021-01-09 04:00:00 -1.7 0 Calma 2 Nordeste 0 -- -- 81
2021-01-09 03:00:00 -1.7 0 Calma 3 Sudoeste 0 -- -- 78
2021-01-09 02:00:00 -1.7 0 Calma 5 Sudoeste 0 -- -- 77
2021-01-09 01:00:00 -1.6 0 Calma 5 Sudoeste 0 -- -- 75
2021-01-09 00:00:00 -1.4 2 Sudeste 6 Sur 0 -- -- 76
2021-01-08 23:00:00 -1.3 3 Nordeste 6 Nordeste 0 -- -- 70
2021-01-08 22:00:00 -1.7 0 Calma 3 Norte 0 -- -- 74
2021-01-08 21:00:00 -1.4 0 Calma 3 Este 0 -- -- 72
2021-01-08 20:00:00 -1 0 Calma 3 Este 0 -- -- 65
2021-01-08 19:00:00 -0.4 0 Calma 5 Sudeste 0 -- -- 64
2021-01-08 18:00:00 0.8 2 Sur 4 Sur 0 -- -- 57
2021-01-08 17:00:00 2.7 0 Calma 4 Oeste 0 -- -- 50
2021-01-08 16:00:00 4.9 3 Sudoeste 8 Sudoeste 0 -- -- 36
2021-01-08 15:00:00 3.2 2 Norte 4 Norte 0 -- -- 39
2021-01-08 14:00:00 1.9 0 Calma 3 Sudoeste 0 -- -- 39
2021-01-08 13:00:00 -0.9 0 Calma 4 Sur 0 -- -- 46
2021-01-08 12:00:00 -5.3 2 Sudeste 4 Sudeste 0 -- -- 66
2021-01-08 11:00:00 -8.3 0 Calma 5 Este 0 -- -- 73
2021-01-08 10:00:00 -9.1 0 Calma 6 Sudeste 0 -- -- 77
2021-01-08 09:00:00 -9.1 2 Sur 12 Nordeste 0 -- -- 74
2021-01-08 08:00:00 -9.3 2 Sur 8 Este 0 -- -- 76
2021-01-08 07:00:00 -8.9 2 Sudoeste 10 Norte 0 -- -- 77
2021-01-08 06:00:00 -8.7 0 Calma 6 Norte 0 -- -- 77
2021-01-08 05:00:00 -8.4 2 Sudeste 5 Noroeste 0 -- -- 77
2021-01-08 04:00:00 -7.8 0 Calma 4 Nordeste 0 -- -- 80
2021-01-08 03:00:00 -7.3 0 Calma 4 Este 0 -- -- 78
2021-01-08 02:00:00 -7.4 0 Calma 5 Sudeste 0 -- -- 82
2021-01-08 01:00:00 -7 0 Calma 4 Sur 0 -- -- 82
2021-01-08 00:00:00 -6.2 0 Calma 4 Norte 0 -- -- 81
2021-01-07 23:00:00 -5.2 0 Calma 3 Nordeste 0 -- -- 82
2021-01-07 22:00:00 -4.1 0 Calma 3 Sudeste 0 -- -- 77
2021-01-07 21:00:00 -2.9 0 Calma 3 Este 0 -- -- 74
2021-01-07 20:00:00 -2.4 0 Calma 4 Sudeste 0 -- -- 73
2021-01-07 19:00:00 -1.9 2 Este 3 Norte 0 -- -- 74
2021-01-07 18:00:00 -1.1 0 Calma 3 Sudeste 0 -- -- 70
2021-01-07 17:00:00 0.1 0 Calma 5 Sudoeste 0 -- -- 59
2021-01-07 16:00:00 0.6 0 Calma 5 Norte 0 -- -- 54
2021-01-07 15:00:00 0.6 0 Calma 4 Norte 0 -- -- 55
2021-01-07 14:00:00 -0.2 0 Calma 4 Norte 0 -- -- 54
2021-01-07 13:00:00 -1.4 2 Norte 9 Norte 0 -- -- 59
2021-01-07 12:00:00 -2.7 3 Norte 10 Norte 0 -- -- 68
2021-01-07 11:00:00 -4.5 5 Norte 8 Norte 0 -- -- 74
2021-01-07 10:00:00 -6.8 0 Calma 4 Sudoeste 0 -- -- 86
2021-01-07 09:00:00 -7.7 0 Calma 4 Oeste 0 -- -- 87
2021-01-07 08:00:00 -7.5 0 Calma 9 Norte 0 -- -- 86
2021-01-07 07:00:00 -7.7 2 Sudoeste 6 Oeste 0 -- -- 86
2021-01-07 06:00:00 -7.6 0 Calma 5 Sur 0 -- -- 86
2021-01-07 05:00:00 -7.3 0 Calma 4 Nordeste 0 -- -- 87
2021-01-07 04:00:00 -7.3 0 Calma 5 Norte 0 -- -- 87
2021-01-07 03:00:00 -6.9 0 Calma 4 Oeste 0 -- -- 89
2021-01-07 02:00:00 -6.6 0 Calma 3 Nordeste 0 -- -- 85
2021-01-07 01:00:00 -6.5 0 Calma 3 Sur 0 -- -- 87
2021-01-07 00:00:00 -6.2 0 Calma 3 Nordeste 0 -- -- 88
2021-01-06 23:00:00 -5.9 0 Calma 4 Sudeste 0 -- -- 87
2021-01-06 22:00:00 -5.6 0 Calma 3 Norte 0 -- -- 89
2021-01-06 21:00:00 -4.9 0 Calma 2 Sur 0 -- -- 85
2021-01-06 20:00:00 -4 0 Calma 3 Este 0 -- -- 83
2021-01-06 19:00:00 -2.9 0 Calma 2 Nordeste 0 -- -- 79
2021-01-06 18:00:00 -1.1 0 Calma 6 Sudeste 0 -- -- 73
2021-01-06 17:00:00 2.7 3 Sur 14 Sudoeste 0 -- -- 59
2021-01-06 16:00:00 3.3 2 Sur 12 Sudeste 0 -- -- 56
2021-01-06 15:00:00 3.3 2 Sudeste 6 Sur 0 -- -- 53
2021-01-06 14:00:00 2.2 0 Calma 3 Sur 0 -- -- 53
2021-01-06 13:00:00 -1.7 0 Calma 3 Este 0 -- -- 66
2021-01-06 12:00:00 -6.3 0 Calma 4 Sudeste 0 -- -- 80
2021-01-06 11:00:00 -7.9 0 Calma 5 Sudoeste 0 -- -- 84
2021-01-06 10:00:00 -8.5 3 Nordeste 9 Norte 0 -- -- 86
2021-01-06 09:00:00 -8.7 0 Calma 5 Oeste 0 -- -- 86
2021-01-06 08:00:00 -8.8 0 Calma 9 Norte 0 -- -- 87
2021-01-06 07:00:00 -8.7 2 Sur 6 Oeste 0 -- -- 86
2021-01-06 06:00:00 -8.2 0 Calma 6 Norte 0 -- -- 86
2021-01-06 05:00:00 -7.9 0 Calma 4 Este 0 -- -- 87
2021-01-06 04:00:00 -7.4 0 Calma 4 Sudeste 0 -- -- 87
2021-01-06 03:00:00 -7.3 0 Calma 3 Noroeste 0 -- -- 88
2021-01-06 02:00:00 -6.8 0 Calma 4 Oeste 0 -- -- 88
2021-01-06 01:00:00 -6.2 0 Calma 4 Nordeste 0 -- -- 85
2021-01-06 00:00:00 -5.6 0 Calma 4 Noroeste 0 -- -- 85
2021-01-05 23:00:00 -5.1 0 Calma 3 Norte 0 -- -- 84
2021-01-05 22:00:00 -5.1 0 Calma 3 Este 0 -- -- 85
2021-01-05 21:00:00 -4.7 0 Calma 3 Norte 0 -- -- 85
2021-01-05 20:00:00 -4 0 Calma 2 Este 0 -- -- 82
2021-01-05 19:00:00 -3 0 Calma 3 Norte 0 -- -- 80
2021-01-05 18:00:00 -1.6 0 Calma 6 Sudoeste 0 -- -- 74
2021-01-05 17:00:00 2.2 4 Sudoeste 15 Sur 0 -- -- 60
2021-01-05 16:00:00 4 7 Sudoeste 17 Sudoeste 0 -- -- 52
2021-01-05 15:00:00 3.7 2 Sudeste 5 Sudeste 0 -- -- 54
2021-01-05 14:00:00 3.2 0 Calma 6 Sur 0 -- -- 58
2021-01-05 13:00:00 -1.1 0 Calma 4 Sudeste 0 -- -- 68
2021-01-05 12:00:00 -5.3 0 Calma 4 Sudoeste 0 -- -- 83
2021-01-05 11:00:00 -6.3 0 Calma 8 Nordeste 0 -- -- 86
2021-01-05 10:00:00 -6.7 2 Sur 7 Norte 0 -- -- 90
2021-01-05 09:00:00 -7.8 0 Calma 12 Noroeste 0 -- -- 90
2021-01-05 08:00:00 -8 0 Calma 4 Sudeste 0 -- -- 91
2021-01-05 07:00:00 -7.7 0 Calma 5 Noroeste 0 -- -- 91
2021-01-05 06:00:00 -7.6 0 Calma 4 Norte 0 -- -- 92
2021-01-05 05:00:00 -7.2 0 Calma 5 Nordeste 0 -- -- 92
2021-01-05 04:00:00 -7 0 Calma 4 Sudeste 0 -- -- 92
2021-01-05 03:00:00 -6.6 0 Calma 4 Sur 0 -- -- 92
2021-01-05 02:00:00 -6.3 2 Este 4 Este 0 -- -- 92
2021-01-05 01:00:00 -6 0 Calma 4 Este 0 -- -- 93
2021-01-05 00:00:00 -5.3 0 Calma 4 Este 0 -- -- 93
2021-01-04 23:00:00 -4.6 0 Calma 4 Noroeste 0 -- -- 91
2021-01-04 22:00:00 -3.7 0 Calma 3 Nordeste 0 -- -- 90
2021-01-04 21:00:00 -2.9 0 Calma 2 Nordeste 0 -- -- 90
2021-01-04 20:00:00 -2.6 0 Calma 3 Sur 0 -- -- 88
2021-01-04 19:00:00 -1.9 0 Calma 4 Este 0 -- -- 85
2021-01-04 18:00:00 -0.8 0 Calma 3 Sudeste 0 -- -- 82
2021-01-04 17:00:00 0.2 0 Calma 4 Sudeste 0 -- -- 78
2021-01-04 16:00:00 1.6 0 Calma 7 Norte 0 -- -- 74
2021-01-04 15:00:00 1.1 0 Calma 5 Norte 0 -- -- 73
2021-01-04 14:00:00 0.5 0 Calma 5 Sudoeste 0 -- -- 72
2021-01-04 13:00:00 -0.7 0 Calma 4 Sur 0 -- -- 67
2021-01-04 12:00:00 -3 2 Sudoeste 5 Norte 0 -- -- 76
2021-01-04 11:00:00 -5.5 0 Calma 4 Este 0 -- -- 87
2021-01-04 10:00:00 -6.4 0 Calma 4 Sudoeste 0 -- -- 87
2021-01-04 09:00:00 -6.7 0 Calma 3 Noroeste 0 -- -- 87
2021-01-04 08:00:00 -6.4 0 Calma 4 Nordeste 0 -- -- 86
2021-01-04 07:00:00 -6 0 Calma 5 Sudeste 0 -- -- 85
2021-01-04 06:00:00 -5.8 2 Sur 5 Sudeste 0 -- -- 86
2021-01-04 05:00:00 -5.4 0 Calma 4 Norte 0 -- -- 83
2021-01-04 04:00:00 -4.3 2 Sur 4 Este 0 -- -- 79
2021-01-04 03:00:00 -3.8 2 Sudoeste 6 Sudoeste 0 -- -- 79
2021-01-04 02:00:00 -3.9 0 Calma 8 Noroeste 0 -- -- 83
2021-01-04 01:00:00 -4.7 2 Sur 4 Sur 0 -- -- 85
2021-01-04 00:00:00 -5 2 Noroeste 5 Sudeste 0 -- -- 87
2021-01-03 23:00:00 -4.8 0 Calma 5 Norte 0 -- -- 82
2021-01-03 22:00:00 -4.3 0 Calma 6 Sur 0 -- -- 81
2021-01-03 21:00:00 -3.6 0 Calma 4 Norte 0 -- -- 78
2021-01-03 20:00:00 -3.1 2 Este 5 Nordeste 0 -- -- 76
2021-01-03 19:00:00 -1.8 0 Calma 3 Sudeste 0 -- -- 70
2021-01-03 18:00:00 0.1 2 Sur 8 Sudoeste 0 -- -- 62
2021-01-03 17:00:00 4.4 4 Sudoeste 19 Sur 0 -- -- 47
2021-01-03 16:00:00 6.2 6 Sudoeste 25 Sudoeste 0 -- -- 39
2021-01-03 15:00:00 5.9 12 Sudoeste 25 Sudoeste 0 -- -- 35
2021-01-03 14:00:00 6 12 Sudoeste 20 Sudoeste 0 -- -- 33
2021-01-03 13:00:00 4.1 9 Sur 21 Sudoeste 0 -- -- 37
2021-01-03 12:00:00 1.8 7 Sur 18 Sudoeste 0 -- -- 43
2021-01-03 11:00:00 0.8 6 Sudoeste 18 Norte 0 -- -- 43
2021-01-03 10:00:00 0.8 5 Nordeste 30 Noroeste 0 -- -- 45
2021-01-03 09:00:00 1.3 10 Norte 21 Norte 0 -- -- 40
2021-01-03 08:00:00 -0.6 4 Este 23 Sudoeste 0 -- -- 49
2021-01-03 07:00:00 -0.5 6 Nordeste 25 Oeste 0 -- -- 48
2021-01-03 06:00:00 1.4 8 Nordeste 25 Norte 0 -- -- 35
2021-01-03 05:00:00 -0.6 6 Nordeste 23 Este 0 -- -- 48
2021-01-03 04:00:00 0.7 6 Este 21 Noroeste 0 -- -- 44
2021-01-03 03:00:00 0.9 6 Noroeste 35 Norte 0 -- -- 40
2021-01-03 02:00:00 0.3 7 Nordeste 31 Noroeste 0 -- -- 38
2021-01-03 01:00:00 -0.8 4 Este 9 Sur 0 -- -- 43
2021-01-03 00:00:00 0.2 3 Este 24 Norte 0 -- -- 42
2021-01-02 23:00:00 2.9 12 Noroeste 31 Noroeste 0 -- -- 26
2021-01-02 22:00:00 2.1 7 Noroeste 23 Noroeste 0 -- -- 31
2021-01-02 21:00:00 2.8 9 Oeste 31 Sur 0 -- -- 29
2021-01-02 20:00:00 0.9 3 Este 22 Oeste 0 -- -- 45
2021-01-02 19:00:00 1.9 4 Nordeste 24 Noroeste 0 -- -- 35
2021-01-02 18:00:00 2.8 8 Oeste 34 Sudoeste 0 -- -- 31
2021-01-02 17:00:00 3.4 9 Oeste 29 Sudoeste 0 -- -- 29
2021-01-02 16:00:00 4.1 8 Noroeste 31 Norte 0 -- -- 29
2021-01-02 15:00:00 4.8 9 Noroeste 28 Noroeste 0 -- -- 28
2021-01-02 14:00:00 5.1 10 Noroeste 26 Nordeste 0 -- -- 31